Date,TemperatureHighF,TemperatureAvgF,TemperatureLowF,DewpointHighF,DewpointAvgF,DewpointLowF,HumidityHigh,HumidityAvg,HumidityLow,PressureMaxIn,PressureMinIn,WindSpeedMaxMPH,WindSpeedAvgMPH,GustSpeedMaxMPH,PrecipitationSumIn
2013-3-1,32.0,29.7,25.8,29.9,25.3,20.0,92,84,75,30.04,29.91,7,3,15,0.01
2013-3-2,29.0,25.8,24.0,25.4,21.7,19.8,92,84,76,30.06,30.00,8,4,13,0.00
2013-3-3,28.1,24.4,22.1,20.7,19.0,16.4,88,80,68,30.06,30.02,7,3,13,0.01
2013-3-13,32.2,28.8,25.8,29.9,22.8,18.0,93,78,67,30.26,29.96,14,8,23,0.00
2013-3-14,41.9,30.4,21.1,25.2,19.6,16.1,81,65,47,30.33,30.16,9,3,20,0.00
2013-3-15,48.8,37.7,25.4,39.9,30.3,19.6,93,75,64,30.17,29.85,8,3,19,0.12
2013-3-16,53.2,41.2,30.7,48.3,38.7,28.1,100,91,80,30.02,29.60,11,4,18,0.09
2013-3-17,37.3,32.8,30.3,28.5,27.0,24.3,90,79,67,30.17,30.01,9,3,18,0.00
2013-3-18,49.2,39.0,30.6,48.4,37.0,25.7,100,93,80,30.08,29.61,13,6,22,0.20
2013-3-19,40.1,34.1,27.9,35.6,24.7,18.4,92,69,51,30.04,29.77,18,10,34,0.02
2013-3-20,35.5,29.8,21.6,22.5,17.4,11.5,70,60,52,30.03,29.91,15,8,25,0.00
2013-3-21,29.2,23.3,17.3,20.8,15.0,10.7,82,71,56,30.01,29.92,8,4,17,0.00
2013-3-22,42.3,29.7,19.9,24.1,19.0,15.3,83,65,44,30.06,29.99,9,3,17,0.00
2013-3-23,47.7,33.1,19.7,28.4,22.6,16.2,89,67,43,30.08,29.96,8,1,12,0.00
2013-3-24,34.8,32.0,29.4,31.0,25.7,22.1,93,78,61,29.98,29.43,12,6,22,0.01
2013-3-25,34.4,32.1,30.8,32.3,30.4,29.5,96,93,88,29.87,29.39,10,3,17,0.32
2013-3-26,40.6,34.7,30.9,32.7,29.1,23.6,94,81,56,30.17,29.87,10,5,17,0.15
2013-3-27,43.0,36.3,31.8,31.2,27.5,24.1,90,71,53,30.26,30.16,12,6,21,0.00
2013-3-28,49.0,37.4,26.8,33.2,26.8,21.8,82,66,50,30.31,30.24,9,3,19,0.00
2013-3-29,52.5,38.2,24.3,33.8,28.1,21.3,92,69,46,30.31,30.20,10,2,19,0.00
2013-3-30,57.2,35.2,26.1,34.7,4.8,-99.9,90,49,36,30.25,29.96,7,1,13,0.00
2013-3-31,53.7,45.8,39.6,46.2,39.1,29.3,94,78,56,29.96,29.72,11,3,19,0.08